Time;durP1;ratioP1;P1;durP2;ratioP2;P2;SDS_P1;SDS_P2;PMS_P1;PMS_P2;Temp;Humidity;BMP_temperature;BMP_pressure;BME280_temperature;BME280_humidity;BME280_pressure;Samples;Min_cycle;Max_cycle;Signal;HPM_P1;HPM_P2
2022/12/20 00:00:16;;;;;;;16.83;10.48;;;8.60;99.90;;;;;;5027161;28;20054;-76
2022/12/20 00:02:42;;;;;;;13.43;10.48;;;8.60;99.90;;;;;;5028274;28;20081;-77
2022/12/20 00:05:08;;;;;;;13.50;10.77;;;8.60;99.90;;;;;;5028401;28;20137;-76
2022/12/20 00:07:34;;;;;;;12.75;10.20;;;8.60;99.90;;;;;;5028009;28;20132;-76
2022/12/20 00:09:59;;;;;;;12.88;10.13;;;8.50;99.90;;;;;;5027939;28;20060;-76
2022/12/20 00:12:25;;;;;;;15.00;11.07;;;8.60;99.90;;;;;;5025867;28;20471;-76
2022/12/20 00:14:51;;;;;;;17.20;10.98;;;8.60;99.90;;;;;;5028347;28;20059;-76
2022/12/20 00:17:16;;;;;;;13.15;10.02;;;8.60;99.90;;;;;;5028409;28;20566;-76
2022/12/20 00:19:45;;;;;;;23.50;10.25;;;8.60;99.90;;;;;;5026493;28;20509;-76
2022/12/20 00:22:11;;;;;;;15.68;10.77;;;8.50;99.90;;;;;;5028779;28;20045;-76
2022/12/20 00:24:36;;;;;;;13.07;9.90;;;8.60;99.90;;;;;;5032140;28;20103;-76
2022/12/20 00:27:02;;;;;;;10.55;9.48;;;8.60;99.90;;;;;;5019612;28;20062;-76
2022/12/20 00:29:28;;;;;;;13.77;9.55;;;8.60;99.90;;;;;;5028292;28;20041;-76
2022/12/20 00:31:53;;;;;;;14.60;10.95;;;8.60;99.90;;;;;;5027432;28;20049;-76
2022/12/20 00:34:19;;;;;;;12.68;8.52;;;8.60;99.90;;;;;;5027268;28;20053;-76
2022/12/20 00:36:45;;;;;;;10.85;9.60;;;8.60;99.90;;;;;;5030677;28;20045;-76
2022/12/20 00:39:11;;;;;;;13.32;9.45;;;8.70;99.90;;;;;;5028134;28;20041;-76
2022/12/20 00:41:37;;;;;;;11.18;9.10;;;8.70;99.90;;;;;;5027578;28;20403;-76
2022/12/20 00:44:03;;;;;;;11.65;9.45;;;8.70;99.90;;;;;;5027802;28;20049;-75
2022/12/20 00:46:30;;;;;;;12.68;9.40;;;8.70;99.90;;;;;;5032897;28;20041;-76
2022/12/20 00:48:56;;;;;;;11.85;9.60;;;8.70;99.90;;;;;;5026231;28;20109;-76
2022/12/20 00:51:25;;;;;;;13.60;8.90;;;8.70;99.90;;;;;;5027704;28;20124;-76
2022/12/20 00:53:51;;;;;;;13.60;10.15;;;8.70;99.90;;;;;;5028028;28;20079;-76
2022/12/20 00:56:17;;;;;;;18.58;10.85;;;8.70;99.90;;;;;;5024809;28;20132;-76
2022/12/20 00:58:43;;;;;;;12.32;10.00;;;8.70;99.90;;;;;;5027693;28;20411;-76
2022/12/20 01:01:17;;;;;;;12.20;9.73;;;8.70;99.90;;;;;;5025948;28;20091;-76
2022/12/20 01:03:43;;;;;;;14.68;9.43;;;8.70;99.90;;;;;;5026587;28;20510;-76
2022/12/20 01:06:10;;;;;;;13.00;9.38;;;8.80;99.90;;;;;;5027575;28;20049;-76
2022/12/20 01:08:35;;;;;;;13.07;9.15;;;8.70;99.90;;;;;;5027465;28;20083;-76
2022/12/20 01:11:05;;;;;;;17.42;10.27;;;8.70;99.90;;;;;;5023232;28;20050;-76
2022/12/20 01:13:32;;;;;;;12.73;10.07;;;8.70;99.90;;;;;;5026672;28;20076;-76
2022/12/20 01:16:15;;;;;;;10.40;8.80;;;8.70;99.90;;;;;;5025988;28;20057;-76
2022/12/20 01:18:41;;;;;;;13.13;8.77;;;8.70;99.90;;;;;;5029212;28;20395;-76
2022/12/20 01:21:11;;;;;;;23.98;9.98;;;8.70;99.90;;;;;;5025244;28;20045;-76
2022/12/20 01:23:37;;;;;;;11.88;9.23;;;8.70;99.90;;;;;;5027067;28;20084;-75
2022/12/20 01:26:08;;;;;;;13.70;9.70;;;8.70;99.90;;;;;;5026722;28;20046;-76
2022/12/20 01:28:34;;;;;;;15.27;9.00;;;8.60;99.90;;;;;;5024952;28;20048;-76
2022/12/20 01:31:00;;;;;;;14.25;9.98;;;8.70;99.90;;;;;;5024970;28;20053;-76
2022/12/20 01:33:26;;;;;;;14.07;10.35;;;8.70;99.90;;;;;;5027034;28;20099;-76
2022/12/20 01:36:03;;;;;;;14.98;10.68;;;8.70;99.90;;;;;;5026430;28;20045;-76
2022/12/20 01:38:29;;;;;;;13.70;9.77;;;8.60;99.90;;;;;;5009457;28;20080;-76
2022/12/20 01:40:56;;;;;;;14.50;10.57;;;8.70;99.90;;;;;;5023458;28;20174;-76
2022/12/20 01:43:23;;;;;;;11.75;9.40;;;8.60;99.90;;;;;;5026741;28;20049;-76
2022/12/20 01:45:49;;;;;;;13.43;9.90;;;8.60;99.90;;;;;;5025811;28;20049;-76
2022/12/20 01:48:20;;;;;;;17.73;9.70;;;8.60;99.90;;;;;;5026616;28;20041;-76
2022/12/20 01:50:47;;;;;;;14.80;10.60;;;8.60;99.90;;;;;;5010091;28;20049;-76
2022/12/20 01:53:15;;;;;;;14.75;10.82;;;8.70;99.90;;;;;;5027186;28;20048;-76
2022/12/20 01:55:41;;;;;;;16.63;9.70;;;8.60;99.90;;;;;;5023016;28;20052;-76
2022/12/20 01:58:11;;;;;;;15.52;10.88;;;8.60;99.90;;;;;;5025512;28;20060;-76
2022/12/20 02:00:37;;;;;;;13.77;8.93;;;8.60;99.90;;;;;;5026275;28;20065;-76
2022/12/20 02:03:10;;;;;;;11.02;9.90;;;8.60;99.90;;;;;;5034871;28;20037;-76
2022/12/20 02:05:38;;;;;;;15.75;9.68;;;8.60;99.90;;;;;;5025832;28;20041;-76
2022/12/20 02:08:05;;;;;;;11.10;9.57;;;8.60;99.90;;;;;;5026129;28;20049;-76
2022/12/20 02:11:00;;;;;;;16.45;10.27;;;8.60;99.90;;;;;;5024369;28;20049;-75
2022/12/20 02:13:33;;;;;;;12.30;9.32;;;8.60;99.90;;;;;;4982349;28;20059;-76
2022/12/20 02:15:59;;;;;;;12.60;9.55;;;8.50;99.90;;;;;;5024810;28;20060;-77
2022/12/20 02:18:31;;;;;;;12.38;9.20;;;8.60;99.90;;;;;;5025260;28;20045;-76
2022/12/20 02:21:34;;;;;;;14.00;8.73;;;8.60;99.90;;;;;;5023687;28;20088;-76
2022/12/20 02:24:19;;;;;;;15.82;9.90;;;8.60;99.90;;;;;;5025447;28;20053;-76
2022/12/20 02:27:05;;;;;;;11.13;8.95;;;8.60;99.90;;;;;;5021830;28;20038;-76
2022/12/20 02:30:05;;;;;;;12.77;10.27;;;8.60;99.90;;;;;;5025148;28;20045;-76
2022/12/20 02:33:11;;;;;;;10.30;8.68;;;8.60;99.90;;;;;;5031325;28;20049;-76
2022/12/20 02:35:38;;;;;;;12.65;8.45;;;8.60;99.90;;;;;;4930026;29;20541;-77
2022/12/20 02:38:31;;;;;;;11.07;9.02;;;8.60;99.90;;;;;;4930118;29;20109;-77
2022/12/20 02:41:01;;;;;;;14.63;9.27;;;8.60;99.90;;;;;;4992679;28;20514;-76
2022/12/20 02:46:16;;;;;;;12.38;9.10;;;8.70;99.90;;;;;;5024568;28;20049;-76
2022/12/20 02:48:42;;;;;;;11.77;9.20;;;8.70;99.90;;;;;;5025227;28;20049;-76
2022/12/20 02:51:09;;;;;;;12.65;9.85;;;8.70;99.90;;;;;;5025598;28;20072;-76
2022/12/20 02:53:36;;;;;;;15.23;9.57;;;8.70;99.90;;;;;;5024810;28;20049;-76
2022/12/20 02:56:11;;;;;;;15.05;9.25;;;8.70;99.90;;;;;;5006051;28;20048;-76
2022/12/20 02:58:49;;;;;;;10.55;9.07;;;8.70;99.90;;;;;;5025284;28;20091;-76
2022/12/20 03:01:28;;;;;;;12.02;9.32;;;8.70;99.90;;;;;;5022394;28;20046;-76
2022/12/20 03:03:56;;;;;;;11.18;8.85;;;8.70;99.90;;;;;;5022763;28;20049;-77
2022/12/20 03:06:22;;;;;;;15.25;8.68;;;8.70;99.90;;;;;;5023931;28;20453;-75
2022/12/20 03:08:48;;;;;;;15.05;9.43;;;8.70;99.90;;;;;;5023316;28;20128;-75
2022/12/20 03:11:13;;;;;;;9.80;8.52;;;8.70;99.90;;;;;;5024658;28;20048;-77
2022/12/20 03:13:39;;;;;;;19.05;10.25;;;8.70;99.90;;;;;;5010563;28;20495;-78
2022/12/20 03:16:05;;;;;;;12.60;9.38;;;8.70;99.90;;;;;;5024857;28;20072;-79
2022/12/20 03:18:31;;;;;;;13.70;9.55;;;8.70;99.90;;;;;;5022888;28;20080;-79
2022/12/20 03:20:57;;;;;;;17.08;9.70;;;8.60;99.90;;;;;;5023178;28;20144;-78
2022/12/20 03:23:23;;;;;;;12.48;9.65;;;8.60;99.90;;;;;;5019724;28;20056;-78
2022/12/20 03:25:48;;;;;;;14.13;10.05;;;8.60;99.90;;;;;;5023803;28;20045;-78
2022/12/20 03:28:14;;;;;;;11.45;9.25;;;8.60;99.90;;;;;;5018740;28;20081;-78
2022/12/20 03:30:41;;;;;;;15.35;9.73;;;8.70;99.90;;;;;;5022751;28;20621;-76
2022/12/20 03:33:06;;;;;;;14.30;10.18;;;8.70;99.90;;;;;;5023625;28;20041;-78
2022/12/20 03:35:32;;;;;;;13.10;9.50;;;8.60;99.90;;;;;;5028460;28;20052;-78
2022/12/20 03:37:58;;;;;;;12.25;8.82;;;8.70;99.90;;;;;;5030040;28;20063;-79
2022/12/20 03:40:23;;;;;;;14.55;10.30;;;8.70;99.90;;;;;;5025870;28;20134;-79
2022/12/20 03:42:49;;;;;;;13.77;10.50;;;8.60;99.90;;;;;;5028741;28;20041;-80
2022/12/20 03:45:15;;;;;;;15.63;9.93;;;8.60;99.90;;;;;;5028766;28;20037;-79
2022/12/20 03:47:40;;;;;;;12.40;10.00;;;8.60;99.90;;;;;;5023440;28;20042;-79
2022/12/20 03:50:07;;;;;;;14.27;9.85;;;8.60;99.90;;;;;;5029360;28;20124;-79
2022/12/20 03:52:33;;;;;;;13.88;9.98;;;8.60;99.90;;;;;;5028496;28;20124;-79
2022/12/20 03:54:59;;;;;;;15.25;10.23;;;8.60;99.90;;;;;;5029138;28;21014;-79
2022/12/20 03:57:25;;;;;;;10.77;9.68;;;8.60;99.90;;;;;;5028024;28;20502;-78
2022/12/20 03:59:51;;;;;;;14.60;9.75;;;8.60;99.90;;;;;;5028463;28;20045;-79
2022/12/20 04:02:16;;;;;;;14.18;11.27;;;8.70;99.90;;;;;;5028151;28;20128;-79
2022/12/20 04:04:42;;;;;;;13.48;10.60;;;8.60;99.90;;;;;;5027860;28;20037;-79
2022/12/20 04:07:08;;;;;;;12.68;9.93;;;8.70;99.90;;;;;;5028836;28;20199;-79
2022/12/20 04:09:33;;;;;;;19.08;10.27;;;8.70;99.90;;;;;;5022938;28;20045;-80
2022/12/20 04:12:00;;;;;;;16.10;10.80;;;8.70;99.90;;;;;;5030128;28;20103;-79
2022/12/20 04:14:25;;;;;;;18.40;10.85;;;8.70;99.90;;;;;;5026951;28;20049;-79
2022/12/20 04:16:51;;;;;;;18.10;10.02;;;8.70;99.90;;;;;;5028003;28;20561;-79
2022/12/20 04:19:17;;;;;;;14.98;10.48;;;8.70;99.90;;;;;;5028416;28;20037;-79
2022/12/20 04:21:42;;;;;;;20.05;11.07;;;8.70;99.90;;;;;;5029701;28;20092;-78
2022/12/20 04:24:09;;;;;;;15.13;11.00;;;8.70;99.90;;;;;;5025771;28;20386;-78
2022/12/20 04:26:35;;;;;;;11.68;9.05;;;8.70;99.90;;;;;;5025233;28;20518;-78
2022/12/20 04:29:00;;;;;;;13.90;10.20;;;8.70;99.90;;;;;;5027894;28;20060;-78
2022/12/20 04:31:26;;;;;;;15.23;11.50;;;8.70;99.90;;;;;;5028119;28;20132;-78
2022/12/20 04:33:52;;;;;;;13.18;9.95;;;8.70;99.90;;;;;;5028222;28;20053;-78
2022/12/20 04:36:18;;;;;;;13.40;9.80;;;8.80;99.90;;;;;;5024831;28;20430;-78
2022/12/20 04:38:44;;;;;;;13.52;10.68;;;8.80;99.90;;;;;;5028458;28;20088;-78
2022/12/20 04:41:20;;;;;;;16.20;11.68;;;8.80;99.90;;;;;;5024899;28;20466;-78
2022/12/20 04:43:57;;;;;;;13.30;10.80;;;8.80;99.90;;;;;;5027973;28;20082;-78
2022/12/20 04:46:24;;;;;;;17.73;10.65;;;8.80;99.90;;;;;;5026469;28;20081;-78
2022/12/20 04:48:50;;;;;;;16.05;10.73;;;8.90;99.90;;;;;;5031259;28;20050;-78
2022/12/20 04:51:17;;;;;;;12.88;9.90;;;8.80;99.90;;;;;;5027992;28;20430;-78
2022/12/20 04:53:46;;;;;;;17.92;10.70;;;8.90;99.90;;;;;;5036249;28;20116;-78
2022/12/20 04:56:19;;;;;;;17.00;10.43;;;8.80;99.90;;;;;;5023873;28;20046;-78
2022/12/20 04:58:46;;;;;;;13.88;11.05;;;8.90;99.90;;;;;;5026939;28;20060;-78
2022/12/20 05:01:12;;;;;;;19.13;12.35;;;8.80;99.90;;;;;;5027857;28;20056;-78
2022/12/20 05:03:38;;;;;;;16.60;10.85;;;8.90;99.90;;;;;;5027314;28;20478;-78
2022/12/20 05:06:04;;;;;;;24.15;10.85;;;8.90;99.90;;;;;;5028267;28;20042;-78
2022/12/20 05:08:30;;;;;;;14.50;10.65;;;8.90;99.90;;;;;;5030795;28;20588;-78
2022/12/20 05:10:56;;;;;;;15.88;12.23;;;8.90;99.90;;;;;;5027078;28;20056;-78
2022/12/20 05:13:22;;;;;;;18.55;10.93;;;8.90;99.90;;;;;;5025585;28;20437;-79
2022/12/20 05:15:53;;;;;;;20.58;10.30;;;9.00;99.90;;;;;;5025618;28;20053;-78
2022/12/20 05:18:18;;;;;;;13.07;9.77;;;9.00;99.90;;;;;;5028907;28;20069;-78
2022/12/20 05:20:44;;;;;;;12.70;9.30;;;9.10;99.90;;;;;;5027564;28;20135;-79
2022/12/20 05:28:55;;;;;;;12.80;9.90;;;9.20;99.90;;;;;;5007226;28;20493;-78
2022/12/20 05:31:21;;;;;;;18.05;9.75;;;9.20;99.90;;;;;;5022822;28;20088;-79
2022/12/20 05:33:46;;;;;;;13.30;9.13;;;9.20;99.90;;;;;;5026683;28;20045;-78
2022/12/20 05:36:12;;;;;;;15.90;9.27;;;9.20;99.90;;;;;;5026966;28;20045;-78
2022/12/20 05:38:38;;;;;;;14.27;9.45;;;9.20;99.90;;;;;;5027145;28;20077;-78
2022/12/20 05:41:05;;;;;;;12.50;9.15;;;9.20;99.90;;;;;;5022489;28;20054;-79
2022/12/20 05:43:31;;;;;;;12.32;8.82;;;9.20;99.90;;;;;;5025675;28;20049;-78
2022/12/20 05:45:57;;;;;;;16.70;8.98;;;9.30;99.90;;;;;;5010014;28;20049;-78
2022/12/20 05:48:22;;;;;;;20.98;8.88;;;9.30;99.90;;;;;;5027254;28;20048;-78
2022/12/20 05:50:48;;;;;;;14.68;9.05;;;9.30;99.90;;;;;;5027482;28;20045;-78
2022/12/20 05:53:15;;;;;;;18.00;9.07;;;9.40;99.90;;;;;;5026595;28;20072;-78
2022/12/20 05:55:47;;;;;;;14.50;7.85;;;9.40;99.90;;;;;;5027737;28;20522;-77
2022/12/20 05:58:13;;;;;;;12.05;7.60;;;9.50;99.90;;;;;;5026141;28;20505;-76
2022/12/20 06:00:42;;;;;;;10.68;8.85;;;9.40;99.90;;;;;;5025877;28;20053;-76
2022/12/20 06:03:10;;;;;;;12.85;8.18;;;9.40;99.90;;;;;;5028828;28;20095;-76
2022/12/20 06:05:39;;;;;;;13.95;9.77;;;9.50;99.90;;;;;;5025685;28;20137;-76
2022/12/20 06:08:06;;;;;;;13.13;8.40;;;9.50;99.90;;;;;;5024042;28;20490;-76
2022/12/20 06:10:33;;;;;;;9.80;8.57;;;9.50;99.90;;;;;;5026345;28;20041;-76
2022/12/20 06:13:00;;;;;;;19.50;10.20;;;9.40;99.90;;;;;;5023220;28;20076;-76
2022/12/20 06:15:25;;;;;;;18.13;11.85;;;9.40;99.90;;;;;;5023688;28;20804;-75
2022/12/20 06:17:51;;;;;;;14.00;10.07;;;9.50;99.90;;;;;;5010053;28;20041;-76
2022/12/20 06:20:17;;;;;;;13.73;11.45;;;9.40;99.90;;;;;;5026092;28;20056;-77
2022/12/20 06:22:43;;;;;;;12.25;9.57;;;9.50;99.90;;;;;;5021721;28;20059;-77
2022/12/20 06:25:08;;;;;;;16.38;10.43;;;9.50;99.90;;;;;;5018574;28;20049;-76
2022/12/20 06:27:35;;;;;;;14.88;12.40;;;9.50;99.90;;;;;;5025846;28;20091;-76
2022/12/20 06:30:03;;;;;;;13.98;10.30;;;9.50;99.90;;;;;;5025549;28;20406;-76
2022/12/20 06:32:29;;;;;;;9.80;8.77;;;9.60;99.90;;;;;;5024458;28;20104;-76
2022/12/20 06:34:54;;;;;;;13.40;8.75;;;9.60;99.90;;;;;;5026010;28;20081;-76
2022/12/20 06:37:21;;;;;;;16.48;10.35;;;9.60;99.90;;;;;;5024329;28;20769;-76
2022/12/20 06:39:47;;;;;;;18.05;10.02;;;9.60;99.90;;;;;;5006851;28;20128;-76
2022/12/20 06:42:12;;;;;;;16.10;10.15;;;9.60;99.90;;;;;;5024624;28;20620;-76
2022/12/20 06:44:38;;;;;;;15.00;9.27;;;9.60;99.90;;;;;;5026669;28;20490;-76
2022/12/20 06:47:04;;;;;;;11.90;7.97;;;9.60;99.90;;;;;;5025369;28;20119;-76
2022/12/20 06:49:31;;;;;;;16.35;9.32;;;9.60;99.90;;;;;;5019085;28;20041;-78
2022/12/20 06:51:57;;;;;;;17.63;11.45;;;9.60;99.90;;;;;;5022947;28;20045;-77
2022/12/20 06:54:23;;;;;;;13.95;8.68;;;9.60;99.90;;;;;;5023873;28;20051;-78
2022/12/20 06:56:48;;;;;;;16.08;10.05;;;9.60;99.90;;;;;;5023377;28;20483;-76
2022/12/20 06:59:14;;;;;;;15.85;9.18;;;9.60;99.90;;;;;;5023841;28;20514;-76
2022/12/20 07:01:40;;;;;;;13.10;10.00;;;9.60;99.90;;;;;;5021701;28;20048;-75
2022/12/20 07:04:05;;;;;;;15.32;11.00;;;9.50;99.90;;;;;;5022181;28;20454;-76
2022/12/20 07:06:32;;;;;;;19.20;11.13;;;9.50;99.90;;;;;;5025034;28;20678;-76
2022/12/20 07:08:58;;;;;;;14.77;11.85;;;9.50;99.90;;;;;;5023515;28;20054;-75
2022/12/20 07:11:23;;;;;;;30.05;15.10;;;9.50;99.90;;;;;;5024392;28;20029;-75
2022/12/20 07:13:55;;;;;;;15.95;12.50;;;9.50;99.90;;;;;;5024607;28;20045;-72
2022/12/20 07:16:20;;;;;;;20.80;12.27;;;9.50;99.90;;;;;;5024689;28;20060;-72
2022/12/20 07:18:50;;;;;;;19.50;11.32;;;9.50;99.90;;;;;;5026640;28;20511;-71
2022/12/20 07:21:17;;;;;;;16.65;12.07;;;9.50;99.90;;;;;;5022416;28;20056;-76
2022/12/20 07:23:45;;;;;;;17.73;13.03;;;9.50;99.90;;;;;;5025629;28;20533;-75
2022/12/20 07:26:12;;;;;;;17.33;11.65;;;9.50;99.90;;;;;;5025752;28;20316;-74
2022/12/20 07:28:38;;;;;;;15.95;11.65;;;9.50;99.90;;;;;;5025371;28;20044;-75
2022/12/20 07:31:05;;;;;;;18.35;11.60;;;9.50;99.90;;;;;;5026250;28;20045;-75
2022/12/20 07:33:31;;;;;;;20.48;12.27;;;9.50;99.90;;;;;;5026779;28;20091;-75
2022/12/20 07:36:12;;;;;;;18.88;12.50;;;9.50;99.90;;;;;;5022919;28;20053;-75
2022/12/20 07:38:38;;;;;;;20.17;13.18;;;9.50;99.90;;;;;;5024512;28;20047;-75
2022/12/20 07:41:09;;;;;;;18.25;12.73;;;9.50;99.90;;;;;;5014692;28;20064;-76
2022/12/20 07:43:35;;;;;;;19.98;13.57;;;9.40;99.90;;;;;;5022537;28;20045;-75
2022/12/20 07:46:01;;;;;;;15.63;11.60;;;9.60;99.90;;;;;;5024817;28;20073;-75
2022/12/20 07:48:27;;;;;;;25.23;12.25;;;9.50;99.90;;;;;;5022175;28;20041;-76
2022/12/20 07:50:57;;;;;;;18.75;13.30;;;9.50;99.90;;;;;;5022152;28;20052;-74
2022/12/20 07:53:26;;;;;;;17.10;11.95;;;9.50;99.90;;;;;;5023939;28;20507;-74
2022/12/20 07:55:52;;;;;;;16.60;13.82;;;9.50;99.90;;;;;;5020581;28;20054;-75
2022/12/20 07:58:19;;;;;;;22.27;14.35;;;9.50;99.90;;;;;;5017965;28;20824;-72
2022/12/20 08:00:45;;;;;;;18.35;13.77;;;9.50;99.90;;;;;;5024688;28;20053;-74
2022/12/20 08:03:22;;;;;;;22.65;13.98;;;9.50;99.90;;;;;;5024566;28;20048;-74
2022/12/20 08:05:52;;;;;;;19.92;15.35;;;9.60;99.90;;;;;;5022035;28;20091;-73
2022/12/20 08:08:19;;;;;;;19.17;14.52;;;9.50;99.90;;;;;;5023861;28;20030;-72
2022/12/20 08:10:45;;;;;;;15.68;13.98;;;9.50;99.90;;;;;;5021175;28;20088;-73
2022/12/20 08:13:11;;;;;;;17.10;13.80;;;9.60;99.90;;;;;;5022976;28;20041;-71
2022/12/20 08:15:37;;;;;;;18.55;12.02;;;9.60;99.90;;;;;;5023788;28;20471;-76
2022/12/20 08:18:05;;;;;;;26.88;19.92;;;9.50;99.90;;;;;;5023632;28;20073;-73
2022/12/20 08:20:31;;;;;;;37.75;25.67;;;9.50;99.90;;;;;;5024065;28;20053;-73
2022/12/20 08:22:56;;;;;;;34.05;20.98;;;9.50;99.90;;;;;;5026176;28;20061;-73
2022/12/20 08:25:23;;;;;;;25.95;16.48;;;9.50;99.90;;;;;;5027994;28;20453;-73
2022/12/20 08:27:48;;;;;;;21.10;14.38;;;9.60;99.90;;;;;;5027944;28;20045;-73
2022/12/20 08:30:14;;;;;;;20.17;12.95;;;9.60;99.90;;;;;;5028140;28;20369;-73
2022/12/20 08:32:40;;;;;;;17.10;13.48;;;9.60;99.90;;;;;;5027841;28;20037;-73
2022/12/20 08:35:12;;;;;;;16.23;12.85;;;9.50;99.90;;;;;;5027555;28;20100;-72
2022/12/20 08:37:38;;;;;;;14.05;10.30;;;9.60;99.90;;;;;;5022657;28;20046;-72
2022/12/20 08:40:04;;;;;;;23.48;10.93;;;9.60;99.90;;;;;;5027576;28;20375;-73
2022/12/20 08:42:30;;;;;;;13.93;10.85;;;9.60;99.90;;;;;;5027939;28;20034;-72
2022/12/20 08:44:55;;;;;;;12.10;10.32;;;9.60;99.90;;;;;;5027833;28;20054;-73
2022/12/20 08:47:21;;;;;;;11.23;9.13;;;9.60;99.90;;;;;;5027710;28;20088;-73
2022/12/20 08:49:47;;;;;;;12.95;10.32;;;9.70;99.90;;;;;;5028064;28;20046;-73
2022/12/20 08:52:12;;;;;;;13.15;9.32;;;9.60;99.90;;;;;;5027321;28;20037;-72
2022/12/20 08:54:38;;;;;;;12.73;9.00;;;9.60;99.90;;;;;;5023396;28;20384;-73
2022/12/20 08:57:03;;;;;;;17.02;12.18;;;9.60;99.90;;;;;;5027834;28;20052;-72
2022/12/20 08:59:29;;;;;;;25.20;16.15;;;9.60;99.90;;;;;;5027855;28;20041;-72
2022/12/20 09:01:55;;;;;;;12.55;10.45;;;9.70;99.90;;;;;;5028517;28;20057;-72
2022/12/20 09:04:21;;;;;;;18.85;12.25;;;9.70;99.90;;;;;;5030006;28;20044;-73
2022/12/20 09:06:47;;;;;;;11.93;10.52;;;9.70;99.90;;;;;;5027233;28;20057;-73
2022/12/20 09:09:13;;;;;;;10.35;8.32;;;9.70;99.90;;;;;;5024424;28;20038;-72
2022/12/20 09:11:38;;;;;;;11.57;8.38;;;9.70;99.90;;;;;;5027561;28;20041;-73
2022/12/20 09:14:04;;;;;;;12.85;9.02;;;9.70;99.90;;;;;;5027391;28;20045;-73
2022/12/20 09:16:31;;;;;;;22.35;16.35;;;9.70;99.90;;;;;;5027293;28;20053;-73
2022/12/20 09:18:59;;;;;;;16.43;10.60;;;9.70;99.90;;;;;;5027239;28;20152;-74
2022/12/20 09:21:25;;;;;;;13.77;10.27;;;9.70;99.90;;;;;;5025936;28;20104;-73
2022/12/20 09:23:52;;;;;;;12.18;9.98;;;9.70;99.90;;;;;;5026669;28;20805;-73
2022/12/20 09:26:19;;;;;;;13.15;9.30;;;9.70;99.90;;;;;;5026829;28;20049;-73
2022/12/20 09:28:46;;;;;;;10.95;9.18;;;9.70;99.90;;;;;;5026924;28;20107;-73
2022/12/20 09:31:17;;;;;;;12.27;9.10;;;9.70;99.90;;;;;;5026911;28;20094;-73
2022/12/20 09:33:43;;;;;;;14.20;9.63;;;9.70;99.90;;;;;;5026148;28;20037;-73
2022/12/20 09:36:17;;;;;;;10.35;9.23;;;9.70;99.90;;;;;;5025548;28;20634;-73
2022/12/20 09:38:44;;;;;;;9.23;8.38;;;9.70;99.90;;;;;;5024215;28;20045;-73
2022/12/20 09:41:24;;;;;;;15.93;10.70;;;9.80;99.90;;;;;;5026975;28;20048;-73
2022/12/20 09:43:50;;;;;;;14.00;8.80;;;9.80;99.90;;;;;;5031055;28;20052;-73
2022/12/20 09:46:16;;;;;;;13.40;9.45;;;9.80;99.90;;;;;;5022556;28;20049;-72
2022/12/20 09:48:43;;;;;;;13.95;8.77;;;9.80;99.90;;;;;;5033729;28;20045;-73
2022/12/20 09:51:08;;;;;;;10.15;8.43;;;9.80;99.90;;;;;;5026466;28;20056;-73
2022/12/20 09:53:59;;;;;;;12.23;9.27;;;9.80;99.90;;;;;;5023492;28;20414;-73
2022/12/20 09:56:42;;;;;;;10.70;9.20;;;9.80;99.90;;;;;;5024815;28;20103;-73
2022/12/20 09:59:14;;;;;;;13.85;9.45;;;9.80;99.90;;;;;;5026359;28;20049;-72
2022/12/20 10:01:44;;;;;;;15.73;9.45;;;9.80;99.90;;;;;;5022830;28;20056;-73
2022/12/20 10:04:28;;;;;;;17.38;9.57;;;9.80;99.90;;;;;;5026537;28;20633;-73
2022/12/20 10:07:15;;;;;;;15.98;10.05;;;9.80;99.90;;;;;;5024887;28;20502;-73
2022/12/20 10:10:02;;;;;;;14.30;9.32;;;9.80;99.90;;;;;;5004137;28;20076;-73
2022/12/20 10:12:49;;;;;;;10.02;9.02;;;9.70;99.90;;;;;;5023989;28;20041;-73
2022/12/20 10:15:23;;;;;;;12.02;10.10;;;9.70;99.90;;;;;;5024179;28;20045;-74
2022/12/20 10:18:08;;;;;;;13.40;9.00;;;9.70;99.90;;;;;;5026121;28;20096;-73
2022/12/20 10:20:56;;;;;;;18.40;11.90;;;9.70;99.90;;;;;;5024901;28;20045;-73
2022/12/20 10:23:31;;;;;;;;;;;9.70;99.90;;;;;;5024803;28;20124;-74
2022/12/20 10:25:57;;;;;;;13.93;9.45;;;9.70;99.90;;;;;;5025922;28;20333;-75
2022/12/20 10:28:29;;;;;;;13.85;10.70;;;9.60;99.90;;;;;;5025708;28;20041;-74
2022/12/20 10:31:05;;;;;;;12.77;9.90;;;9.60;99.90;;;;;;5026252;28;20057;-75
2022/12/20 10:33:31;;;;;;;14.25;10.30;;;9.60;99.90;;;;;;5024699;28;20053;-75
2022/12/20 10:36:27;;;;;;;13.20;9.75;;;9.60;99.90;;;;;;5022446;28;20440;-75
2022/12/20 10:39:02;;;;;;;14.10;10.38;;;9.60;99.90;;;;;;5017447;28;20467;-75
2022/12/20 10:41:31;;;;;;;13.20;9.40;;;9.50;99.90;;;;;;5023234;28;20048;-74
2022/12/20 10:44:27;;;;;;;11.75;8.95;;;9.60;99.90;;;;;;5025196;28;20046;-75
2022/12/20 10:46:55;;;;;;;11.95;9.32;;;9.60;99.90;;;;;;5012973;28;20057;-75
2022/12/20 10:49:32;;;;;;;11.30;8.90;;;9.60;99.90;;;;;;5025626;28;20050;-75
2022/12/20 10:52:08;;;;;;;11.90;9.40;;;9.60;99.90;;;;;;5023298;28;20069;-75
2022/12/20 10:55:00;;;;;;;14.75;9.60;;;9.60;99.90;;;;;;5024485;28;20136;-75
2022/12/20 10:57:28;;;;;;;19.35;12.60;;;9.60;99.90;;;;;;5022610;28;20159;-74
2022/12/20 10:59:54;;;;;;;;;;;9.60;99.90;;;;;;5022303;28;20088;-74
2022/12/20 11:02:30;;;;;;;15.80;11.60;;;9.50;99.90;;;;;;5025566;28;20717;-74
2022/12/20 11:05:20;;;;;;;17.77;11.18;;;9.50;99.90;;;;;;5019554;28;20411;-74
2022/12/20 11:07:56;;;;;;;14.60;10.15;;;9.60;99.90;;;;;;5020901;28;20041;-74
2022/12/20 11:10:28;;;;;;;13.68;9.50;;;9.60;99.90;;;;;;5024373;28;20049;-74
2022/12/20 11:12:56;;;;;;;11.75;9.77;;;9.60;99.90;;;;;;5025114;28;20085;-75
2022/12/20 11:15:24;;;;;;;;;;;9.60;99.90;;;;;;5025787;28;20103;-75
2022/12/20 11:18:13;;;;;;;14.60;10.48;;;9.60;99.90;;;;;;5025453;28;19927;-75
2022/12/20 11:21:10;;;;;;;12.55;9.38;;;9.60;99.90;;;;;;5021800;28;20065;-75
2022/12/20 11:23:57;;;;;;;13.15;9.73;;;9.60;99.90;;;;;;5033553;28;20049;-74
2022/12/20 11:26:49;;;;;;;22.95;11.02;;;9.60;99.90;;;;;;5023323;28;20094;-74
2022/12/20 11:29:33;;;;;;;11.57;10.38;;;9.60;99.90;;;;;;5024575;28;20045;-75
2022/12/20 11:32:22;;;;;;;14.75;10.10;;;9.60;99.90;;;;;;5030179;28;20046;-75
2022/12/20 11:35:05;;;;;;;20.45;11.75;;;9.60;99.90;;;;;;5024183;28;20105;-76
2022/12/20 11:37:49;;;;;;;14.35;10.02;;;9.60;99.90;;;;;;5020429;28;20555;-75
2022/12/20 11:40:35;;;;;;;15.40;10.05;;;9.60;99.90;;;;;;5022847;28;20506;-75
2022/12/20 11:43:10;;;;;;;19.83;9.98;;;9.70;99.90;;;;;;5035262;28;20395;-74
2022/12/20 11:46:14;;;;;;;14.13;8.85;;;9.70;99.90;;;;;;5024674;28;20499;-75
2022/12/20 11:48:51;;;;;;;11.52;8.95;;;9.60;99.90;;;;;;5025612;28;20056;-74
2022/12/20 11:51:19;;;;;;;15.82;9.73;;;9.70;99.90;;;;;;5023444;28;20088;-75
2022/12/20 11:54:08;;;;;;;14.88;10.43;;;9.70;99.90;;;;;;5020954;28;20077;-74
2022/12/20 11:56:58;;;;;;;14.63;10.00;;;9.70;99.90;;;;;;5024446;28;20034;-74
2022/12/20 11:59:35;;;;;;;14.15;8.65;;;9.80;99.90;;;;;;5028757;28;20045;-74
2022/12/20 12:02:13;;;;;;;14.45;10.43;;;9.80;99.90;;;;;;5026495;28;20069;-74
2022/12/20 12:04:46;;;;;;;13.57;9.82;;;9.80;99.90;;;;;;5028730;28;20057;-74
2022/12/20 12:07:18;;;;;;;14.60;10.18;;;9.80;99.90;;;;;;5028344;28;20230;-74
2022/12/20 12:10:05;;;;;;;15.85;10.23;;;9.80;99.90;;;;;;5027382;28;20052;-74
2022/12/20 12:12:37;;;;;;;11.52;9.25;;;9.80;99.90;;;;;;5032697;28;20501;-74
2022/12/20 12:15:21;;;;;;;13.07;9.85;;;9.80;99.90;;;;;;5028407;28;20059;-74
2022/12/20 12:18:14;;;;;;;11.32;8.57;;;9.80;99.90;;;;;;5033276;28;20546;-74
2022/12/20 12:21:04;;;;;;;20.80;9.05;;;9.80;99.90;;;;;;5023276;28;21494;-74
2022/12/20 12:24:03;;;;;;;12.13;9.65;;;9.80;99.90;;;;;;5028524;28;20080;-74
2022/12/20 12:26:40;;;;;;;13.23;10.85;;;9.80;99.90;;;;;;5025460;28;20045;-74
2022/12/20 12:29:11;;;;;;;10.30;9.02;;;9.80;99.90;;;;;;5029350;28;20562;-75
2022/12/20 12:31:50;;;;;;;14.18;9.20;;;9.80;99.90;;;;;;5028730;28;20057;-75
2022/12/20 12:34:49;;;;;;;13.02;9.85;;;9.80;99.90;;;;;;5027240;28;20053;-75
2022/12/20 12:37:49;;;;;;;16.90;9.90;;;9.80;99.90;;;;;;5025590;28;20049;-74
2022/12/20 12:40:47;;;;;;;13.95;10.20;;;9.80;99.90;;;;;;5027936;28;20046;-75
2022/12/20 12:43:44;;;;;;;14.13;10.48;;;9.80;99.90;;;;;;4989581;28;20091;-74
2022/12/20 12:46:31;;;;;;;16.30;11.52;;;9.80;99.90;;;;;;5029052;28;20104;-74
2022/12/20 12:48:59;;;;;;;14.52;10.20;;;9.80;99.90;;;;;;5030779;28;20482;-74
2022/12/20 12:51:52;;;;;;;14.57;11.63;;;9.80;99.90;;;;;;5028178;28;20057;-74
2022/12/20 12:54:28;;;;;;;14.80;11.63;;;9.80;99.90;;;;;;5024721;28;20159;-74
2022/12/20 12:57:15;;;;;;;16.20;12.20;;;9.80;99.90;;;;;;5025632;28;20060;-74
2022/12/20 12:59:44;;;;;;;14.40;12.90;;;9.80;99.90;;;;;;5025067;28;20037;-74
2022/12/20 13:02:13;;;;;;;22.02;14.98;;;9.80;99.90;;;;;;5028328;28;20045;-75
2022/12/20 13:05:11;;;;;;;18.25;12.75;;;9.80;99.90;;;;;;5028266;28;20072;-74
2022/12/20 13:07:39;;;;;;;21.40;15.30;;;9.80;99.90;;;;;;5026208;28;20085;-74
2022/12/20 13:10:08;;;;;;;21.67;15.25;;;9.80;99.90;;;;;;5025230;28;20056;-74